sensor_id;sensor_type;location;lat;lon;timestamp;pressure;altitude;pressure_sealevel;temperature;humidity
55990;BME280;41875;55.806;38.082;2023-05-23T12:45:32;99669.50;;;24.98;42.11
55990;BME280;41875;55.806;38.082;2023-05-23T12:48:03;99671.03;;;24.03;44.55
55990;BME280;41875;55.806;38.082;2023-05-23T12:50:33;99670.00;;;23.63;45.60
55990;BME280;41875;55.806;38.082;2023-05-23T12:53:02;99666.25;;;23.64;46.98
55990;BME280;41875;55.806;38.082;2023-05-23T12:55:30;99658.88;;;24.96;44.15
55990;BME280;41875;55.806;38.082;2023-05-23T12:57:59;99642.47;;;24.46;44.12
55990;BME280;41875;55.806;38.082;2023-05-23T13:00:28;99657.06;;;24.45;44.33
55990;BME280;41875;55.806;38.082;2023-05-23T13:02:57;99656.38;;;25.11;43.19
55990;BME280;41875;55.806;38.082;2023-05-23T13:05:26;99648.75;;;24.69;43.61
55990;BME280;41875;55.806;38.082;2023-05-23T13:07:55;99656.94;;;23.89;45.98
55990;BME280;41875;55.806;38.082;2023-05-23T13:10:25;99658.94;;;23.65;46.98
55990;BME280;41875;55.806;38.082;2023-05-23T13:12:58;99651.75;;;24.16;45.32
55990;BME280;41875;55.806;38.082;2023-05-23T13:15:27;99637.78;;;24.59;44.36
55990;BME280;41875;55.806;38.082;2023-05-23T13:17:55;99648.81;;;25.14;42.39
55990;BME280;41875;55.806;38.082;2023-05-23T13:20:25;99649.38;;;26.15;40.97
55990;BME280;41875;55.806;38.082;2023-05-23T13:22:56;99640.03;;;24.67;43.48
55990;BME280;41875;55.806;38.082;2023-05-23T13:25:26;99621.97;;;24.90;43.21
55990;BME280;41875;55.806;38.082;2023-05-23T13:27:55;99636.53;;;24.66;43.95
55990;BME280;41875;55.806;38.082;2023-05-23T13:30:24;99638.56;;;24.59;44.02
55990;BME280;41875;55.806;38.082;2023-05-23T13:32:53;99635.63;;;24.78;43.16
55990;BME280;41875;55.806;38.082;2023-05-23T13:35:22;99634.63;;;24.84;43.23
55990;BME280;41875;55.806;38.082;2023-05-23T13:37:52;99631.03;;;24.78;43.63
55990;BME280;41875;55.806;38.082;2023-05-23T13:40:21;99640.97;;;24.56;44.29
55990;BME280;41875;55.806;38.082;2023-05-23T13:42:50;99640.91;;;24.33;44.80
55990;BME280;41875;55.806;38.082;2023-05-23T13:45:19;99644.19;;;24.70;44.17
55990;BME280;41875;55.806;38.082;2023-05-23T13:47:49;99641.31;;;24.42;44.69
55990;BME280;41875;55.806;38.082;2023-05-23T13:50:18;99642.66;;;24.40;45.38
55990;BME280;41875;55.806;38.082;2023-05-23T13:52:47;99641.47;;;24.70;44.50
55990;BME280;41875;55.806;38.082;2023-05-23T13:55:18;99643.78;;;24.27;45.42
55990;BME280;41875;55.806;38.082;2023-05-23T13:57:47;99637.47;;;23.75;46.90
55990;BME280;41875;55.806;38.082;2023-05-23T14:00:15;99635.69;;;24.10;45.92
55990;BME280;41875;55.806;38.082;2023-05-23T14:02:44;99639.78;;;24.12;45.59
55990;BME280;41875;55.806;38.082;2023-05-23T14:05:15;99639.56;;;23.85;46.22
55990;BME280;41875;55.806;38.082;2023-05-23T14:07:45;99639.94;;;23.59;47.19
55990;BME280;41875;55.806;38.082;2023-05-23T14:10:14;99636.25;;;23.83;46.83
55990;BME280;41875;55.806;38.082;2023-05-23T14:12:45;99640.06;;;23.53;47.59
55990;BME280;41875;55.806;38.082;2023-05-23T14:15:14;99626.91;;;23.56;47.40
55990;BME280;41875;55.806;38.082;2023-05-23T14:17:43;99613.16;;;23.46;48.32
55990;BME280;41875;55.806;38.082;2023-05-23T14:20:12;99621.28;;;23.92;46.87
55990;BME280;41875;55.806;38.082;2023-05-23T14:22:40;99617.72;;;23.28;48.27
55990;BME280;41875;55.806;38.082;2023-05-23T14:25:09;99622.69;;;23.08;48.92
55990;BME280;41875;55.806;38.082;2023-05-23T14:27:38;99610.72;;;23.04;48.49
55990;BME280;41875;55.806;38.082;2023-05-23T14:30:09;99613.28;;;22.58;49.97
55990;BME280;41875;55.806;38.082;2023-05-23T14:32:38;99603.25;;;22.22;51.16
55990;BME280;41875;55.806;38.082;2023-05-23T14:35:08;99617.44;;;22.89;50.23
55990;BME280;41875;55.806;38.082;2023-05-23T14:37:37;99607.88;;;22.58;50.63
55990;BME280;41875;55.806;38.082;2023-05-23T14:40:08;99617.44;;;22.89;50.18
55990;BME280;41875;55.806;38.082;2023-05-23T14:42:37;99604.84;;;22.95;50.07
55990;BME280;41875;55.806;38.082;2023-05-23T14:45:06;99605.47;;;22.85;48.87
55990;BME280;41875;55.806;38.082;2023-05-23T14:47:39;99590.34;;;22.72;49.75
55990;BME280;41875;55.806;38.082;2023-05-23T14:50:09;99591.47;;;23.00;48.74
55990;BME280;41875;55.806;38.082;2023-05-23T14:52:38;99586.13;;;23.17;48.75
55990;BME280;41875;55.806;38.082;2023-05-23T14:55:07;99580.72;;;23.17;49.61
55990;BME280;41875;55.806;38.082;2023-05-23T14:57:36;99581.22;;;22.61;50.76
55990;BME280;41875;55.806;38.082;2023-05-23T15:00:06;99578.75;;;22.60;49.70
55990;BME280;41875;55.806;38.082;2023-05-23T15:02:36;99578.84;;;22.65;49.78
55990;BME280;41875;55.806;38.082;2023-05-23T15:05:06;99580.75;;;22.52;50.54
55990;BME280;41875;55.806;38.082;2023-05-23T15:07:35;99584.13;;;22.36;50.64
55990;BME280;41875;55.806;38.082;2023-05-23T15:10:05;99584.25;;;22.17;51.47
55990;BME280;41875;55.806;38.082;2023-05-23T15:12:35;99591.28;;;22.66;49.90
55990;BME280;41875;55.806;38.082;2023-05-23T15:15:04;99584.25;;;22.65;50.51
55990;BME280;41875;55.806;38.082;2023-05-23T15:17:36;99568.28;;;22.75;50.21
55990;BME280;41875;55.806;38.082;2023-05-23T15:20:06;99574.03;;;22.67;49.74
55990;BME280;41875;55.806;38.082;2023-05-23T15:22:39;99580.16;;;22.62;50.14
55990;BME280;41875;55.806;38.082;2023-05-23T15:25:09;99567.78;;;22.78;49.71
55990;BME280;41875;55.806;38.082;2023-05-23T15:27:37;99563.38;;;22.60;50.41
55990;BME280;41875;55.806;38.082;2023-05-23T15:30:07;99560.91;;;22.35;51.70
55990;BME280;41875;55.806;38.082;2023-05-23T15:32:38;99560.66;;;22.72;50.38
55990;BME280;41875;55.806;38.082;2023-05-23T15:35:07;99551.25;;;22.75;50.37
55990;BME280;41875;55.806;38.082;2023-05-23T15:37:36;99553.28;;;22.67;50.39
55990;BME280;41875;55.806;38.082;2023-05-23T15:40:05;99554.53;;;22.65;50.70
55990;BME280;41875;55.806;38.082;2023-05-23T15:42:34;99543.91;;;22.34;51.89
55990;BME280;41875;55.806;38.082;2023-05-23T15:45:03;99546.00;;;22.32;51.74
55990;BME280;41875;55.806;38.082;2023-05-23T15:47:34;99547.69;;;22.45;51.77
55990;BME280;41875;55.806;38.082;2023-05-23T15:50:06;99545.88;;;22.27;52.43
55990;BME280;41875;55.806;38.082;2023-05-23T15:52:38;99537.47;;;22.00;53.02
55990;BME280;41875;55.806;38.082;2023-05-23T15:55:07;99533.13;;;21.99;52.97
55990;BME280;41875;55.806;38.082;2023-05-23T15:57:35;99524.31;;;21.91;53.12
55990;BME280;41875;55.806;38.082;2023-05-23T16:00:05;99532.63;;;22.02;52.99
55990;BME280;41875;55.806;38.082;2023-05-23T16:02:38;99537.78;;;21.80;53.94
55990;BME280;41875;55.806;38.082;2023-05-23T16:05:08;99542.56;;;21.66;53.92
55990;BME280;41875;55.806;38.082;2023-05-23T16:07:37;99535.22;;;21.42;54.80
55990;BME280;41875;55.806;38.082;2023-05-23T16:10:06;99534.75;;;21.45;54.82
55990;BME280;41875;55.806;38.082;2023-05-23T16:12:35;99548.34;;;21.51;55.29
55990;BME280;41875;55.806;38.082;2023-05-23T16:15:04;99537.66;;;21.32;55.73
55990;BME280;41875;55.806;38.082;2023-05-23T16:17:33;99528.38;;;21.28;55.50
55990;BME280;41875;55.806;38.082;2023-05-23T16:20:01;99534.50;;;21.77;54.28
55990;BME280;41875;55.806;38.082;2023-05-23T16:22:31;99526.63;;;21.34;55.72
55990;BME280;41875;55.806;38.082;2023-05-23T16:25:00;99543.09;;;21.25;56.37
55990;BME280;41875;55.806;38.082;2023-05-23T16:27:31;99520.84;;;21.18;56.22
55990;BME280;41875;55.806;38.082;2023-05-23T16:29:59;99540.41;;;21.56;55.39
55990;BME280;41875;55.806;38.082;2023-05-23T16:32:30;99539.09;;;21.16;56.70
55990;BME280;41875;55.806;38.082;2023-05-23T16:34:59;99545.44;;;21.52;55.44
55990;BME280;41875;55.806;38.082;2023-05-23T16:37:27;99543.59;;;21.34;56.11
55990;BME280;41875;55.806;38.082;2023-05-23T16:39:57;99538.81;;;21.24;56.55
55990;BME280;41875;55.806;38.082;2023-05-23T16:42:26;99529.69;;;21.37;56.12
55990;BME280;41875;55.806;38.082;2023-05-23T16:44:55;99529.34;;;21.34;55.80
55990;BME280;41875;55.806;38.082;2023-05-23T16:47:23;99524.50;;;21.66;54.90
55990;BME280;41875;55.806;38.082;2023-05-23T16:49:52;99520.59;;;21.50;55.74
55990;BME280;41875;55.806;38.082;2023-05-23T16:52:21;99528.31;;;21.89;54.00
55990;BME280;41875;55.806;38.082;2023-05-23T16:54:49;99520.13;;;21.53;55.08
55990;BME280;41875;55.806;38.082;2023-05-23T16:57:19;99525.63;;;21.58;54.91
55990;BME280;41875;55.806;38.082;2023-05-23T16:59:47;99522.94;;;21.16;56.61
55990;BME280;41875;55.806;38.082;2023-05-23T17:02:16;99519.84;;;21.31;56.50
55990;BME280;41875;55.806;38.082;2023-05-23T17:04:45;99523.28;;;20.70;58.19
55990;BME280;41875;55.806;38.082;2023-05-23T17:07:14;99518.88;;;20.58;58.98
55990;BME280;41875;55.806;38.082;2023-05-23T17:09:42;99524.84;;;20.60;58.64
55990;BME280;41875;55.806;38.082;2023-05-23T17:12:11;99522.69;;;20.68;58.30
55990;BME280;41875;55.806;38.082;2023-05-23T17:14:41;99530.56;;;20.70;58.29
55990;BME280;41875;55.806;38.082;2023-05-23T17:17:10;99505.56;;;20.63;58.35
55990;BME280;41875;55.806;38.082;2023-05-23T17:19:38;99519.94;;;20.56;58.72
55990;BME280;41875;55.806;38.082;2023-05-23T17:22:09;99515.00;;;20.53;58.86
55990;BME280;41875;55.806;38.082;2023-05-23T17:24:38;99510.28;;;20.67;58.62
55990;BME280;41875;55.806;38.082;2023-05-23T17:27:07;99507.91;;;20.59;58.73
55990;BME280;41875;55.806;38.082;2023-05-23T17:29:35;99501.16;;;20.50;59.58
55990;BME280;41875;55.806;38.082;2023-05-23T17:32:06;99500.00;;;20.46;59.39
55990;BME280;41875;55.806;38.082;2023-05-23T17:34:35;99499.53;;;20.49;59.40
55990;BME280;41875;55.806;38.082;2023-05-23T17:37:29;99502.81;;;20.51;59.40
55990;BME280;41875;55.806;38.082;2023-05-23T17:39:58;99498.09;;;20.46;59.54
55990;BME280;41875;55.806;38.082;2023-05-23T17:42:28;99507.47;;;20.44;59.74
55990;BME280;41875;55.806;38.082;2023-05-23T17:44:57;99496.16;;;20.35;60.89
55990;BME280;41875;55.806;38.082;2023-05-23T17:47:27;99500.38;;;20.05;61.48
55990;BME280;41875;55.806;38.082;2023-05-23T17:49:57;99500.25;;;20.00;62.24
55990;BME280;41875;55.806;38.082;2023-05-23T17:52:25;99489.09;;;19.71;62.47
55990;BME280;41875;55.806;38.082;2023-05-23T17:54:55;99484.03;;;19.56;63.23
55990;BME280;41875;55.806;38.082;2023-05-23T17:57:24;99480.00;;;19.47;64.04
55990;BME280;41875;55.806;38.082;2023-05-23T17:59:52;99485.78;;;19.44;63.38
55990;BME280;41875;55.806;38.082;2023-05-23T18:02:23;99472.44;;;19.62;63.13
55990;BME280;41875;55.806;38.082;2023-05-23T18:04:53;99463.94;;;19.40;63.67
55990;BME280;41875;55.806;38.082;2023-05-23T18:07:22;99472.69;;;19.54;63.24
55990;BME280;41875;55.806;38.082;2023-05-23T18:09:51;99468.03;;;19.68;62.49
55990;BME280;41875;55.806;38.082;2023-05-23T18:12:20;99451.81;;;19.56;62.72
55990;BME280;41875;55.806;38.082;2023-05-23T18:14:49;99454.84;;;19.41;63.14
55990;BME280;41875;55.806;38.082;2023-05-23T18:17:18;99457.03;;;19.51;63.13
55990;BME280;41875;55.806;38.082;2023-05-23T18:19:47;99472.63;;;19.61;62.76
55990;BME280;41875;55.806;38.082;2023-05-23T18:22:18;99464.69;;;19.73;62.71
55990;BME280;41875;55.806;38.082;2023-05-23T18:24:47;99471.66;;;19.55;63.12
55990;BME280;41875;55.806;38.082;2023-05-23T18:27:16;99470.56;;;19.63;62.52
55990;BME280;41875;55.806;38.082;2023-05-23T18:29:44;99485.69;;;19.83;62.32
55990;BME280;41875;55.806;38.082;2023-05-23T18:32:13;99486.06;;;19.61;62.97
55990;BME280;41875;55.806;38.082;2023-05-23T18:34:41;99473.09;;;19.58;63.01
55990;BME280;41875;55.806;38.082;2023-05-23T18:37:13;99469.41;;;19.27;64.12
55990;BME280;41875;55.806;38.082;2023-05-23T18:39:43;99469.41;;;19.27;64.20
55990;BME280;41875;55.806;38.082;2023-05-23T18:42:13;99478.03;;;19.29;64.11
55990;BME280;41875;55.806;38.082;2023-05-23T18:44:42;99481.50;;;19.36;64.36
55990;BME280;41875;55.806;38.082;2023-05-23T18:47:10;99471.09;;;19.46;63.54
55990;BME280;41875;55.806;38.082;2023-05-23T18:49:41;99468.63;;;19.45;63.58
55990;BME280;41875;55.806;38.082;2023-05-23T18:52:10;99467.31;;;19.54;63.32
55990;BME280;41875;55.806;38.082;2023-05-23T18:54:39;99462.84;;;19.48;63.82
55990;BME280;41875;55.806;38.082;2023-05-23T18:57:10;99462.72;;;19.36;63.79
55990;BME280;41875;55.806;38.082;2023-05-23T18:59:39;99466.66;;;19.33;63.96
55990;BME280;41875;55.806;38.082;2023-05-23T19:02:08;99466.41;;;19.67;62.74
55990;BME280;41875;55.806;38.082;2023-05-23T19:04:36;99466.78;;;19.71;62.85
55990;BME280;41875;55.806;38.082;2023-05-23T19:07:07;99479.09;;;19.78;62.56
55990;BME280;41875;55.806;38.082;2023-05-23T19:09:36;99472.25;;;19.57;63.35
55990;BME280;41875;55.806;38.082;2023-05-23T19:12:05;99480.91;;;19.85;61.98
55990;BME280;41875;55.806;38.082;2023-05-23T19:14:37;99477.25;;;19.79;62.24
55990;BME280;41875;55.806;38.082;2023-05-23T19:17:06;99476.59;;;19.84;62.44
55990;BME280;41875;55.806;38.082;2023-05-23T19:19:35;99482.56;;;19.86;62.28
55990;BME280;41875;55.806;38.082;2023-05-23T19:22:04;99468.97;;;20.24;60.29
55990;BME280;41875;55.806;38.082;2023-05-23T19:24:35;99475.66;;;19.97;61.48
55990;BME280;41875;55.806;38.082;2023-05-23T19:27:05;99469.75;;;19.62;62.91
55990;BME280;41875;55.806;38.082;2023-05-23T19:29:38;99464.53;;;19.93;62.04
55990;BME280;41875;55.806;38.082;2023-05-23T19:32:10;99462.16;;;20.03;61.20
55990;BME280;41875;55.806;38.082;2023-05-23T19:34:40;99469.50;;;20.15;61.09
55990;BME280;41875;55.806;38.082;2023-05-23T19:37:10;99467.16;;;20.00;61.51
55990;BME280;41875;55.806;38.082;2023-05-23T19:39:39;99468.41;;;19.97;61.75
55990;BME280;41875;55.806;38.082;2023-05-23T19:42:12;99459.47;;;19.78;62.35
55990;BME280;41875;55.806;38.082;2023-05-23T19:44:46;99464.72;;;20.17;61.10
55990;BME280;41875;55.806;38.082;2023-05-23T19:47:16;99463.28;;;19.95;61.60
55990;BME280;41875;55.806;38.082;2023-05-23T19:49:45;99459.91;;;20.37;60.50
55990;BME280;41875;55.806;38.082;2023-05-23T19:52:13;99453.13;;;20.53;59.67
55990;BME280;41875;55.806;38.082;2023-05-23T19:54:42;99449.75;;;20.77;58.55
55990;BME280;41875;55.806;38.082;2023-05-23T19:57:10;99452.72;;;20.50;59.38
55990;BME280;41875;55.806;38.082;2023-05-23T19:59:39;99454.50;;;20.75;58.52
55990;BME280;41875;55.806;38.082;2023-05-23T20:02:09;99453.25;;;20.77;58.61
55990;BME280;41875;55.806;38.082;2023-05-23T20:04:38;99448.00;;;20.82;57.92
55990;BME280;41875;55.806;38.082;2023-05-23T20:07:07;99443.59;;;20.69;58.25
55990;BME280;41875;55.806;38.082;2023-05-23T20:09:35;99453.41;;;21.25;56.65
55990;BME280;41875;55.806;38.082;2023-05-23T20:12:04;99443.13;;;20.91;57.78
55990;BME280;41875;55.806;38.082;2023-05-23T20:14:33;99450.16;;;20.92;57.90
55990;BME280;41875;55.806;38.082;2023-05-23T20:17:02;99443.81;;;20.86;57.79
55990;BME280;41875;55.806;38.082;2023-05-23T20:19:35;99444.72;;;20.80;58.38
55990;BME280;41875;55.806;38.082;2023-05-23T20:22:06;99441.78;;;20.82;57.01
55990;BME280;41875;55.806;38.082;2023-05-23T20:24:35;99444.91;;;20.48;58.91
55990;BME280;41875;55.806;38.082;2023-05-23T20:27:05;99441.22;;;20.61;58.24
55990;BME280;41875;55.806;38.082;2023-05-23T20:29:34;99444.97;;;20.79;57.87
55990;BME280;41875;55.806;38.082;2023-05-23T20:32:04;99448.69;;;20.59;57.73
55990;BME280;41875;55.806;38.082;2023-05-23T20:34:36;99436.72;;;20.55;56.83
55990;BME280;41875;55.806;38.082;2023-05-23T20:37:11;99438.53;;;20.61;57.20
55990;BME280;41875;55.806;38.082;2023-05-23T20:39:42;99438.97;;;20.77;55.80
55990;BME280;41875;55.806;38.082;2023-05-23T20:42:14;99442.38;;;20.65;56.56
55990;BME280;41875;55.806;38.082;2023-05-23T20:44:43;99444.78;;;20.74;55.82
55990;BME280;41875;55.806;38.082;2023-05-23T20:47:13;99438.50;;;20.80;54.74
55990;BME280;41875;55.806;38.082;2023-05-23T20:49:45;99440.38;;;20.61;55.51
55990;BME280;41875;55.806;38.082;2023-05-23T20:52:15;99443.31;;;20.59;54.93
55990;BME280;41875;55.806;38.082;2023-05-23T20:54:43;99444.44;;;20.70;54.17
55990;BME280;41875;55.806;38.082;2023-05-23T20:57:14;99448.53;;;20.73;53.94
55990;BME280;41875;55.806;38.082;2023-05-23T20:59:43;99446.63;;;20.73;53.85
55990;BME280;41875;55.806;38.082;2023-05-23T21:02:12;99441.66;;;20.77;53.56
55990;BME280;41875;55.806;38.082;2023-05-23T21:04:40;99446.72;;;20.66;53.30
55990;BME280;41875;55.806;38.082;2023-05-23T21:07:10;99442.84;;;20.81;52.64
55990;BME280;41875;55.806;38.082;2023-05-23T21:09:40;99439.66;;;20.53;53.47
55990;BME280;41875;55.806;38.082;2023-05-23T21:12:08;99444.19;;;20.71;52.68
55990;BME280;41875;55.806;38.082;2023-05-23T21:14:37;99454.22;;;20.64;52.32
55990;BME280;41875;55.806;38.082;2023-05-23T21:17:06;99449.66;;;20.65;52.55
55990;BME280;41875;55.806;38.082;2023-05-23T21:19:34;99448.81;;;21.13;51.81
55990;BME280;41875;55.806;38.082;2023-05-23T21:22:03;99446.16;;;20.64;51.16
55990;BME280;41875;55.806;38.082;2023-05-23T21:24:33;99454.59;;;20.68;51.46
55990;BME280;41875;55.806;38.082;2023-05-23T21:27:04;99452.25;;;20.71;50.79
55990;BME280;41875;55.806;38.082;2023-05-23T21:29:33;99456.34;;;20.74;50.59
55990;BME280;41875;55.806;38.082;2023-05-23T21:32:04;99451.97;;;21.10;50.49
55990;BME280;41875;55.806;38.082;2023-05-23T21:34:32;99454.72;;;20.92;50.39
55990;BME280;41875;55.806;38.082;2023-05-23T21:37:26;99448.31;;;21.05;49.82
55990;BME280;41875;55.806;38.082;2023-05-23T21:39:56;99447.41;;;20.80;50.31
55990;BME280;41875;55.806;38.082;2023-05-23T21:42:24;99451.06;;;20.86;49.43
55990;BME280;41875;55.806;38.082;2023-05-23T21:44:53;99451.75;;;20.81;49.80
55990;BME280;41875;55.806;38.082;2023-05-23T21:47:21;99449.06;;;20.81;49.27
55990;BME280;41875;55.806;38.082;2023-05-23T21:49:51;99453.59;;;20.81;49.74
55990;BME280;41875;55.806;38.082;2023-05-23T21:52:19;99445.06;;;21.14;49.61
55990;BME280;41875;55.806;38.082;2023-05-23T21:54:48;99438.97;;;20.77;48.96
55990;BME280;41875;55.806;38.082;2023-05-23T21:57:19;99451.75;;;20.63;49.33
55990;BME280;41875;55.806;38.082;2023-05-23T21:59:47;99444.38;;;20.58;49.49
55990;BME280;41875;55.806;38.082;2023-05-23T22:02:16;99445.56;;;20.62;49.43
55990;BME280;41875;55.806;38.082;2023-05-23T22:04:44;99438.97;;;20.58;49.18
55990;BME280;41875;55.806;38.082;2023-05-23T22:07:13;99434.88;;;20.55;49.09
55990;BME280;41875;55.806;38.082;2023-05-23T22:09:42;99427.56;;;20.44;49.18
55990;BME280;41875;55.806;38.082;2023-05-23T22:12:10;99433.69;;;20.51;49.04
55990;BME280;41875;55.806;38.082;2023-05-23T22:14:41;99429.06;;;20.40;49.16
55990;BME280;41875;55.806;38.082;2023-05-23T22:17:10;99430.84;;;20.28;49.49
55990;BME280;41875;55.806;38.082;2023-05-23T22:19:40;99425.63;;;20.33;49.45
55990;BME280;41875;55.806;38.082;2023-05-23T22:22:09;99437.06;;;20.28;49.50
55990;BME280;41875;55.806;38.082;2023-05-23T22:24:38;99431.44;;;20.30;49.61
55990;BME280;41875;55.806;38.082;2023-05-23T22:27:06;99428.03;;;20.71;48.85
55990;BME280;41875;55.806;38.082;2023-05-23T22:29:35;99425.78;;;20.38;48.58
55990;BME280;41875;55.806;38.082;2023-05-23T22:32:05;99420.25;;;20.33;49.35
55990;BME280;41875;55.806;38.082;2023-05-23T22:34:36;99428.91;;;20.16;49.14
55990;BME280;41875;55.806;38.082;2023-05-23T22:37:09;99417.72;;;20.19;49.42
55990;BME280;41875;55.806;38.082;2023-05-23T22:39:38;99427.59;;;20.25;49.20
55990;BME280;41875;55.806;38.082;2023-05-23T22:42:06;99419.28;;;20.27;48.59
55990;BME280;41875;55.806;38.082;2023-05-23T22:44:35;99423.78;;;20.33;48.13
55990;BME280;41875;55.806;38.082;2023-05-23T22:47:05;99429.16;;;20.33;49.03
55990;BME280;41875;55.806;38.082;2023-05-23T22:49:36;99430.72;;;20.22;49.25
55990;BME280;41875;55.806;38.082;2023-05-23T22:52:04;99418.31;;;20.70;48.35
55990;BME280;41875;55.806;38.082;2023-05-23T22:54:35;99423.28;;;20.36;48.63
55990;BME280;41875;55.806;38.082;2023-05-23T22:57:04;99426.06;;;20.30;48.62
55990;BME280;41875;55.806;38.082;2023-05-23T22:59:32;99426.00;;;20.36;48.20
55990;BME280;41875;55.806;38.082;2023-05-23T23:02:01;99426.22;;;20.35;48.47
55990;BME280;41875;55.806;38.082;2023-05-23T23:04:31;99428.75;;;20.30;48.44
55990;BME280;41875;55.806;38.082;2023-05-23T23:07:00;99421.97;;;20.27;48.47
55990;BME280;41875;55.806;38.082;2023-05-23T23:09:28;99435.66;;;20.25;48.39
55990;BME280;41875;55.806;38.082;2023-05-23T23:11:57;99431.25;;;20.31;48.32
55990;BME280;41875;55.806;38.082;2023-05-23T23:14:25;99430.63;;;20.29;48.25
55990;BME280;41875;55.806;38.082;2023-05-23T23:16:54;99425.56;;;20.21;48.41
55990;BME280;41875;55.806;38.082;2023-05-23T23:19:24;99418.69;;;20.25;48.42
55990;BME280;41875;55.806;38.082;2023-05-23T23:21:54;99424.81;;;20.32;48.18
55990;BME280;41875;55.806;38.082;2023-05-23T23:24:22;99422.34;;;20.31;48.14
55990;BME280;41875;55.806;38.082;2023-05-23T23:26:51;99417.28;;;20.22;48.15
55990;BME280;41875;55.806;38.082;2023-05-23T23:29:22;99423.25;;;20.24;48.16
55990;BME280;41875;55.806;38.082;2023-05-23T23:31:51;99422.81;;;20.77;47.59
55990;BME280;41875;55.806;38.082;2023-05-23T23:34:21;99419.19;;;20.34;48.07
55990;BME280;41875;55.806;38.082;2023-05-23T23:36:50;99418.53;;;20.38;47.80
55990;BME280;41875;55.806;38.082;2023-05-23T23:39:20;99413.81;;;20.34;47.90
55990;BME280;41875;55.806;38.082;2023-05-23T23:41:48;99415.53;;;20.28;47.73
55990;BME280;41875;55.806;38.082;2023-05-23T23:44:17;99412.84;;;20.28;47.98
55990;BME280;41875;55.806;38.082;2023-05-23T23:46:46;99409.88;;;20.18;48.29
55990;BME280;41875;55.806;38.082;2023-05-23T23:49:14;99420.84;;;20.16;48.24
55990;BME280;41875;55.806;38.082;2023-05-23T23:51:43;99421.16;;;20.08;48.70
55990;BME280;41875;55.806;38.082;2023-05-23T23:54:12;99419.66;;;20.12;48.25
55990;BME280;41875;55.806;38.082;2023-05-23T23:56:41;99420.13;;;20.09;48.67
55990;BME280;41875;55.806;38.082;2023-05-23T23:59:10;99396.06;;;19.95;48.53
